sensor_id;sensor_type;location;lat;lon;timestamp;P1;durP1;ratioP1;P2;durP2;ratioP2
74217;SDS011;62579;47.288;18.646;2022-08-07T00:00:04;3.13;;;2.30;;
74217;SDS011;62579;47.288;18.646;2022-08-07T00:02:29;2.57;;;2.37;;
74217;SDS011;62579;47.288;18.646;2022-08-07T00:04:55;2.37;;;2.17;;
74217;SDS011;62579;47.288;18.646;2022-08-07T00:07:20;2.33;;;2.13;;
74217;SDS011;62579;47.288;18.646;2022-08-07T00:09:46;2.77;;;2.30;;
74217;SDS011;62579;47.288;18.646;2022-08-07T00:12:11;4.33;;;2.40;;
74217;SDS011;62579;47.288;18.646;2022-08-07T00:14:36;2.73;;;2.30;;
74217;SDS011;62579;47.288;18.646;2022-08-07T00:17:03;2.20;;;2.00;;
74217;SDS011;62579;47.288;18.646;2022-08-07T00:19:31;2.70;;;2.25;;
74217;SDS011;62579;47.288;18.646;2022-08-07T00:21:57;2.60;;;2.40;;
74217;SDS011;62579;47.288;18.646;2022-08-07T00:24:22;3.43;;;2.40;;
74217;SDS011;62579;47.288;18.646;2022-08-07T00:26:48;2.40;;;2.20;;
74217;SDS011;62579;47.288;18.646;2022-08-07T00:29:15;3.75;;;2.50;;
74217;SDS011;62579;47.288;18.646;2022-08-07T00:31:42;2.87;;;2.20;;
74217;SDS011;62579;47.288;18.646;2022-08-07T00:34:07;2.53;;;2.30;;
74217;SDS011;62579;47.288;18.646;2022-08-07T00:36:32;2.50;;;2.30;;
74217;SDS011;62579;47.288;18.646;2022-08-07T00:38:58;2.57;;;2.37;;
74217;SDS011;62579;47.288;18.646;2022-08-07T00:41:27;3.20;;;2.60;;
74217;SDS011;62579;47.288;18.646;2022-08-07T00:43:55;2.47;;;2.27;;
74217;SDS011;62579;47.288;18.646;2022-08-07T00:46:21;5.50;;;2.43;;
74217;SDS011;62579;47.288;18.646;2022-08-07T00:48:46;2.90;;;2.40;;
74217;SDS011;62579;47.288;18.646;2022-08-07T00:51:11;2.60;;;2.40;;
74217;SDS011;62579;47.288;18.646;2022-08-07T00:53:38;4.57;;;2.50;;
74217;SDS011;62579;47.288;18.646;2022-08-07T00:56:03;4.70;;;2.20;;
74217;SDS011;62579;47.288;18.646;2022-08-07T00:58:29;3.10;;;2.43;;
74217;SDS011;62579;47.288;18.646;2022-08-07T01:00:55;3.40;;;2.50;;
74217;SDS011;62579;47.288;18.646;2022-08-07T01:03:20;3.00;;;2.70;;
74217;SDS011;62579;47.288;18.646;2022-08-07T01:05:45;4.70;;;2.50;;
74217;SDS011;62579;47.288;18.646;2022-08-07T01:08:11;2.77;;;2.57;;
74217;SDS011;62579;47.288;18.646;2022-08-07T01:10:37;3.70;;;2.50;;
74217;SDS011;62579;47.288;18.646;2022-08-07T01:13:03;2.93;;;2.63;;
74217;SDS011;62579;47.288;18.646;2022-08-07T01:15:28;2.70;;;2.50;;
74217;SDS011;62579;47.288;18.646;2022-08-07T01:17:56;3.20;;;2.70;;
74217;SDS011;62579;47.288;18.646;2022-08-07T01:20:36;4.10;;;2.50;;
74217;SDS011;62579;47.288;18.646;2022-08-07T01:23:05;3.63;;;2.77;;
74217;SDS011;62579;47.288;18.646;2022-08-07T01:25:31;3.43;;;2.67;;
74217;SDS011;62579;47.288;18.646;2022-08-07T01:27:58;5.47;;;2.30;;
74217;SDS011;62579;47.288;18.646;2022-08-07T01:30:24;2.63;;;2.43;;
74217;SDS011;62579;47.288;18.646;2022-08-07T01:32:50;2.65;;;2.45;;
74217;SDS011;62579;47.288;18.646;2022-08-07T01:35:15;2.93;;;2.63;;
74217;SDS011;62579;47.288;18.646;2022-08-07T01:37:41;3.30;;;2.37;;
74217;SDS011;62579;47.288;18.646;2022-08-07T01:40:07;2.63;;;2.43;;
74217;SDS011;62579;47.288;18.646;2022-08-07T01:42:33;2.47;;;2.28;;
74217;SDS011;62579;47.288;18.646;2022-08-07T01:44:59;4.03;;;2.17;;
74217;SDS011;62579;47.288;18.646;2022-08-07T01:47:25;2.77;;;2.50;;
74217;SDS011;62579;47.288;18.646;2022-08-07T01:49:50;2.60;;;2.40;;
74217;SDS011;62579;47.288;18.646;2022-08-07T01:52:16;2.50;;;2.30;;
74217;SDS011;62579;47.288;18.646;2022-08-07T01:54:42;6.57;;;2.30;;
74217;SDS011;62579;47.288;18.646;2022-08-07T01:57:09;2.42;;;2.22;;
74217;SDS011;62579;47.288;18.646;2022-08-07T01:59:48;2.75;;;2.55;;
74217;SDS011;62579;47.288;18.646;2022-08-07T02:02:21;2.07;;;1.80;;
74217;SDS011;62579;47.288;18.646;2022-08-07T02:05:08;2.73;;;2.40;;
74217;SDS011;62579;47.288;18.646;2022-08-07T02:07:38;4.28;;;2.70;;
74217;SDS011;62579;47.288;18.646;2022-08-07T02:10:07;3.53;;;2.40;;
74217;SDS011;62579;47.288;18.646;2022-08-07T02:12:35;2.60;;;2.20;;
74217;SDS011;62579;47.288;18.646;2022-08-07T02:15:02;2.53;;;1.97;;
74217;SDS011;62579;47.288;18.646;2022-08-07T02:17:29;3.65;;;2.35;;
74217;SDS011;62579;47.288;18.646;2022-08-07T02:19:55;2.40;;;2.23;;
74217;SDS011;62579;47.288;18.646;2022-08-07T02:22:23;2.30;;;2.13;;
74217;SDS011;62579;47.288;18.646;2022-08-07T02:24:51;3.70;;;2.20;;
74217;SDS011;62579;47.288;18.646;2022-08-07T02:27:19;2.33;;;2.13;;
74217;SDS011;62579;47.288;18.646;2022-08-07T02:29:47;4.50;;;2.20;;
74217;SDS011;62579;47.288;18.646;2022-08-07T02:32:15;3.93;;;2.40;;
74217;SDS011;62579;47.288;18.646;2022-08-07T02:34:43;2.33;;;2.13;;
74217;SDS011;62579;47.288;18.646;2022-08-07T02:37:10;3.90;;;2.50;;
74217;SDS011;62579;47.288;18.646;2022-08-07T02:39:41;4.68;;;2.92;;
74217;SDS011;62579;47.288;18.646;2022-08-07T02:42:08;2.10;;;1.87;;
74217;SDS011;62579;47.288;18.646;2022-08-07T02:44:35;5.65;;;2.40;;
74217;SDS011;62579;47.288;18.646;2022-08-07T02:49:29;4.60;;;2.30;;
74217;SDS011;62579;47.288;18.646;2022-08-07T02:51:55;3.80;;;2.40;;
74217;SDS011;62579;47.288;18.646;2022-08-07T02:54:23;2.33;;;2.17;;
74217;SDS011;62579;47.288;18.646;2022-08-07T02:56:52;3.27;;;2.10;;
74217;SDS011;62579;47.288;18.646;2022-08-07T02:59:20;2.93;;;2.30;;
74217;SDS011;62579;47.288;18.646;2022-08-07T03:01:48;2.63;;;2.30;;
74217;SDS011;62579;47.288;18.646;2022-08-07T03:04:14;2.47;;;2.27;;
74217;SDS011;62579;47.288;18.646;2022-08-07T03:06:42;3.00;;;2.30;;
74217;SDS011;62579;47.288;18.646;2022-08-07T03:09:08;3.83;;;2.10;;
74217;SDS011;62579;47.288;18.646;2022-08-07T03:11:34;2.80;;;2.60;;
74217;SDS011;62579;47.288;18.646;2022-08-07T03:14:01;2.55;;;2.35;;
74217;SDS011;62579;47.288;18.646;2022-08-07T03:16:28;2.53;;;2.33;;
74217;SDS011;62579;47.288;18.646;2022-08-07T03:18:55;2.37;;;2.15;;
74217;SDS011;62579;47.288;18.646;2022-08-07T03:21:21;3.27;;;2.33;;
74217;SDS011;62579;47.288;18.646;2022-08-07T03:23:47;3.33;;;2.25;;
74217;SDS011;62579;47.288;18.646;2022-08-07T03:26:16;3.23;;;2.13;;
74217;SDS011;62579;47.288;18.646;2022-08-07T03:28:45;2.60;;;2.30;;
74217;SDS011;62579;47.288;18.646;2022-08-07T03:31:12;3.93;;;2.60;;
74217;SDS011;62579;47.288;18.646;2022-08-07T03:33:45;3.20;;;2.53;;
74217;SDS011;62579;47.288;18.646;2022-08-07T03:36:12;3.10;;;2.43;;
74217;SDS011;62579;47.288;18.646;2022-08-07T03:38:39;2.33;;;2.13;;
74217;SDS011;62579;47.288;18.646;2022-08-07T03:41:05;3.17;;;2.33;;
74217;SDS011;62579;47.288;18.646;2022-08-07T03:43:32;2.70;;;2.40;;
74217;SDS011;62579;47.288;18.646;2022-08-07T03:45:58;5.23;;;2.33;;
74217;SDS011;62579;47.288;18.646;2022-08-07T03:48:25;3.22;;;2.60;;
74217;SDS011;62579;47.288;18.646;2022-08-07T03:50:53;3.77;;;2.50;;
74217;SDS011;62579;47.288;18.646;2022-08-07T03:53:20;2.83;;;2.63;;
74217;SDS011;62579;47.288;18.646;2022-08-07T03:55:46;3.40;;;2.37;;
74217;SDS011;62579;47.288;18.646;2022-08-07T04:00:39;3.07;;;2.53;;
74217;SDS011;62579;47.288;18.646;2022-08-07T04:03:05;2.90;;;2.60;;
74217;SDS011;62579;47.288;18.646;2022-08-07T04:05:33;2.23;;;2.10;;
74217;SDS011;62579;47.288;18.646;2022-08-07T04:08:00;2.53;;;2.33;;
74217;SDS011;62579;47.288;18.646;2022-08-07T04:10:26;2.53;;;2.33;;
74217;SDS011;62579;47.288;18.646;2022-08-07T04:12:51;8.20;;;2.90;;
74217;SDS011;62579;47.288;18.646;2022-08-07T04:15:17;2.70;;;2.50;;
74217;SDS011;62579;47.288;18.646;2022-08-07T04:17:44;3.50;;;2.50;;
74217;SDS011;62579;47.288;18.646;2022-08-07T04:20:09;4.20;;;2.40;;
74217;SDS011;62579;47.288;18.646;2022-08-07T04:22:36;2.92;;;2.62;;
74217;SDS011;62579;47.288;18.646;2022-08-07T04:25:04;2.87;;;2.57;;
74217;SDS011;62579;47.288;18.646;2022-08-07T04:27:31;4.05;;;2.30;;
74217;SDS011;62579;47.288;18.646;2022-08-07T04:29:56;7.83;;;3.10;;
74217;SDS011;62579;47.288;18.646;2022-08-07T04:32:22;3.00;;;2.70;;
74217;SDS011;62579;47.288;18.646;2022-08-07T04:34:48;2.93;;;2.63;;
74217;SDS011;62579;47.288;18.646;2022-08-07T04:37:14;5.90;;;2.80;;
74217;SDS011;62579;47.288;18.646;2022-08-07T04:39:40;2.87;;;2.67;;
74217;SDS011;62579;47.288;18.646;2022-08-07T04:42:06;7.57;;;2.87;;
74217;SDS011;62579;47.288;18.646;2022-08-07T04:44:31;3.80;;;2.60;;
74217;SDS011;62579;47.288;18.646;2022-08-07T04:47:19;3.53;;;3.23;;
74217;SDS011;62579;47.288;18.646;2022-08-07T04:49:54;3.50;;;3.20;;
74217;SDS011;62579;47.288;18.646;2022-08-07T04:55:00;5.40;;;3.60;;
74217;SDS011;62579;47.288;18.646;2022-08-07T05:00:17;3.83;;;3.30;;
74217;SDS011;62579;47.288;18.646;2022-08-07T05:02:59;4.33;;;3.50;;
74217;SDS011;62579;47.288;18.646;2022-08-07T05:11:29;4.37;;;3.42;;
74217;SDS011;62579;47.288;18.646;2022-08-07T05:14:02;3.47;;;3.17;;
74217;SDS011;62579;47.288;18.646;2022-08-07T05:16:32;6.30;;;3.90;;
74217;SDS011;62579;47.288;18.646;2022-08-07T05:19:01;6.07;;;3.63;;
74217;SDS011;62579;47.288;18.646;2022-08-07T05:21:30;4.40;;;3.73;;
74217;SDS011;62579;47.288;18.646;2022-08-07T05:23:58;3.90;;;3.60;;
74217;SDS011;62579;47.288;18.646;2022-08-07T05:26:27;4.33;;;3.33;;
74217;SDS011;62579;47.288;18.646;2022-08-07T05:28:55;4.60;;;3.53;;
74217;SDS011;62579;47.288;18.646;2022-08-07T05:31:25;6.80;;;3.60;;
74217;SDS011;62579;47.288;18.646;2022-08-07T05:33:57;5.07;;;3.73;;
74217;SDS011;62579;47.288;18.646;2022-08-07T05:36:23;5.10;;;3.47;;
74217;SDS011;62579;47.288;18.646;2022-08-07T05:38:49;3.72;;;3.42;;
74217;SDS011;62579;47.288;18.646;2022-08-07T05:41:16;3.55;;;3.20;;
74217;SDS011;62579;47.288;18.646;2022-08-07T05:43:46;6.57;;;3.70;;
74217;SDS011;62579;47.288;18.646;2022-08-07T05:46:15;3.70;;;3.40;;
74217;SDS011;62579;47.288;18.646;2022-08-07T05:48:41;5.00;;;3.40;;
74217;SDS011;62579;47.288;18.646;2022-08-07T05:51:07;5.50;;;3.23;;
74217;SDS011;62579;47.288;18.646;2022-08-07T05:53:34;3.90;;;3.50;;
74217;SDS011;62579;47.288;18.646;2022-08-07T05:55:59;4.10;;;3.70;;
74217;SDS011;62579;47.288;18.646;2022-08-07T05:58:26;4.10;;;3.30;;
74217;SDS011;62579;47.288;18.646;2022-08-07T06:00:53;4.32;;;3.25;;
74217;SDS011;62579;47.288;18.646;2022-08-07T06:03:22;3.80;;;3.50;;
74217;SDS011;62579;47.288;18.646;2022-08-07T06:05:48;3.83;;;3.27;;
74217;SDS011;62579;47.288;18.646;2022-08-07T06:08:14;3.27;;;3.03;;
74217;SDS011;62579;47.288;18.646;2022-08-07T06:10:40;3.40;;;3.10;;
74217;SDS011;62579;47.288;18.646;2022-08-07T06:13:06;4.63;;;3.30;;
74217;SDS011;62579;47.288;18.646;2022-08-07T06:15:33;3.40;;;3.10;;
74217;SDS011;62579;47.288;18.646;2022-08-07T06:18:00;3.20;;;2.90;;
74217;SDS011;62579;47.288;18.646;2022-08-07T06:20:27;3.30;;;3.08;;
74217;SDS011;62579;47.288;18.646;2022-08-07T06:22:54;3.33;;;3.10;;
74217;SDS011;62579;47.288;18.646;2022-08-07T06:25:20;4.20;;;3.17;;
74217;SDS011;62579;47.288;18.646;2022-08-07T06:27:46;5.53;;;3.37;;
74217;SDS011;62579;47.288;18.646;2022-08-07T06:30:11;4.13;;;3.47;;
74217;SDS011;62579;47.288;18.646;2022-08-07T06:32:37;4.83;;;3.23;;
74217;SDS011;62579;47.288;18.646;2022-08-07T06:35:02;3.50;;;3.00;;
74217;SDS011;62579;47.288;18.646;2022-08-07T06:37:28;4.23;;;3.83;;
74217;SDS011;62579;47.288;18.646;2022-08-07T06:39:53;3.80;;;3.47;;
74217;SDS011;62579;47.288;18.646;2022-08-07T06:42:34;3.60;;;3.30;;
74217;SDS011;62579;47.288;18.646;2022-08-07T06:45:04;7.90;;;3.33;;
74217;SDS011;62579;47.288;18.646;2022-08-07T06:47:33;4.03;;;3.67;;
74217;SDS011;62579;47.288;18.646;2022-08-07T06:49:58;5.63;;;3.90;;
74217;SDS011;62579;47.288;18.646;2022-08-07T06:52:26;3.97;;;3.50;;
74217;SDS011;62579;47.288;18.646;2022-08-07T06:54:54;5.30;;;3.57;;
74217;SDS011;62579;47.288;18.646;2022-08-07T06:57:20;6.72;;;3.97;;
74217;SDS011;62579;47.288;18.646;2022-08-07T06:59:48;3.93;;;3.43;;
74217;SDS011;62579;47.288;18.646;2022-08-07T07:02:17;4.00;;;3.37;;
74217;SDS011;62579;47.288;18.646;2022-08-07T07:04:45;3.87;;;3.47;;
74217;SDS011;62579;47.288;18.646;2022-08-07T07:07:11;3.55;;;3.25;;
74217;SDS011;62579;47.288;18.646;2022-08-07T07:09:42;3.83;;;3.40;;
74217;SDS011;62579;47.288;18.646;2022-08-07T07:12:16;3.97;;;3.67;;
74217;SDS011;62579;47.288;18.646;2022-08-07T07:14:53;5.40;;;3.70;;
74217;SDS011;62579;47.288;18.646;2022-08-07T07:17:25;5.97;;;3.47;;
74217;SDS011;62579;47.288;18.646;2022-08-07T07:19:56;7.07;;;3.70;;
74217;SDS011;62579;47.288;18.646;2022-08-07T07:22:24;3.57;;;3.27;;
74217;SDS011;62579;47.288;18.646;2022-08-07T07:24:52;5.23;;;3.43;;
74217;SDS011;62579;47.288;18.646;2022-08-07T07:27:19;4.90;;;3.20;;
74217;SDS011;62579;47.288;18.646;2022-08-07T07:29:48;3.93;;;3.53;;
74217;SDS011;62579;47.288;18.646;2022-08-07T07:32:18;6.53;;;3.40;;
74217;SDS011;62579;47.288;18.646;2022-08-07T07:34:48;3.87;;;3.30;;
74217;SDS011;62579;47.288;18.646;2022-08-07T07:37:17;4.80;;;3.00;;
74217;SDS011;62579;47.288;18.646;2022-08-07T07:42:11;2.65;;;2.45;;
74217;SDS011;62579;47.288;18.646;2022-08-07T07:44:40;3.13;;;2.83;;
74217;SDS011;62579;47.288;18.646;2022-08-07T07:47:09;6.00;;;2.80;;
74217;SDS011;62579;47.288;18.646;2022-08-07T07:49:36;3.30;;;2.87;;
74217;SDS011;62579;47.288;18.646;2022-08-07T07:52:04;3.00;;;2.60;;
74217;SDS011;62579;47.288;18.646;2022-08-07T07:54:30;3.90;;;2.97;;
74217;SDS011;62579;47.288;18.646;2022-08-07T07:56:57;2.67;;;2.47;;
74217;SDS011;62579;47.288;18.646;2022-08-07T07:59:24;2.70;;;2.25;;
74217;SDS011;62579;47.288;18.646;2022-08-07T08:01:51;2.90;;;2.20;;
74217;SDS011;62579;47.288;18.646;2022-08-07T08:06:44;5.60;;;2.43;;
74217;SDS011;62579;47.288;18.646;2022-08-07T08:09:11;4.03;;;2.28;;
74217;SDS011;62579;47.288;18.646;2022-08-07T08:11:40;2.50;;;2.30;;
74217;SDS011;62579;47.288;18.646;2022-08-07T08:14:07;3.92;;;2.25;;
74217;SDS011;62579;47.288;18.646;2022-08-07T08:16:34;5.18;;;2.05;;
74217;SDS011;62579;47.288;18.646;2022-08-07T08:19:03;4.80;;;2.35;;
74217;SDS011;62579;47.288;18.646;2022-08-07T08:21:31;2.58;;;2.00;;
74217;SDS011;62579;47.288;18.646;2022-08-07T08:24:16;2.80;;;2.10;;
74217;SDS011;62579;47.288;18.646;2022-08-07T08:27:01;2.85;;;2.30;;
74217;SDS011;62579;47.288;18.646;2022-08-07T08:29:41;2.47;;;2.03;;
74217;SDS011;62579;47.288;18.646;2022-08-07T08:32:08;2.50;;;2.10;;
74217;SDS011;62579;47.288;18.646;2022-08-07T08:34:40;4.07;;;2.08;;
74217;SDS011;62579;47.288;18.646;2022-08-07T08:37:09;2.67;;;2.00;;
74217;SDS011;62579;47.288;18.646;2022-08-07T08:39:37;2.45;;;2.20;;
74217;SDS011;62579;47.288;18.646;2022-08-07T08:44:53;2.90;;;2.20;;
74217;SDS011;62579;47.288;18.646;2022-08-07T08:47:29;2.10;;;2.00;;
74217;SDS011;62579;47.288;18.646;2022-08-07T08:55:37;4.65;;;2.10;;
74217;SDS011;62579;47.288;18.646;2022-08-07T09:01:08;3.72;;;2.05;;
74217;SDS011;62579;47.288;18.646;2022-08-07T09:03:43;3.83;;;1.90;;
74217;SDS011;62579;47.288;18.646;2022-08-07T09:17:59;3.50;;;1.85;;
74217;SDS011;62579;47.288;18.646;2022-08-07T09:20:26;1.80;;;1.70;;
74217;SDS011;62579;47.288;18.646;2022-08-07T09:25:46;2.47;;;1.90;;
74217;SDS011;62579;47.288;18.646;2022-08-07T09:28:38;1.90;;;1.80;;
74217;SDS011;62579;47.288;18.646;2022-08-07T09:33:44;1.90;;;1.80;;
74217;SDS011;62579;47.288;18.646;2022-08-07T09:44:48;2.28;;;1.90;;
74217;SDS011;62579;47.288;18.646;2022-08-07T09:53:04;1.95;;;1.85;;
74217;SDS011;62579;47.288;18.646;2022-08-07T10:01:12;2.75;;;1.77;;
74217;SDS011;62579;47.288;18.646;2022-08-07T10:06:57;2.00;;;1.90;;
74217;SDS011;62579;47.288;18.646;2022-08-07T10:12:39;1.98;;;1.87;;
74217;SDS011;62579;47.288;18.646;2022-08-07T10:17:54;2.05;;;1.80;;
74217;SDS011;62579;47.288;18.646;2022-08-07T10:20:24;2.08;;;1.87;;
74217;SDS011;62579;47.288;18.646;2022-08-07T10:31:20;2.62;;;1.70;;
74217;SDS011;62579;47.288;18.646;2022-08-07T10:39:08;3.33;;;2.10;;
74217;SDS011;62579;47.288;18.646;2022-08-07T10:42:31;6.05;;;2.20;;
74217;SDS011;62579;47.288;18.646;2022-08-07T10:44:51;2.37;;;2.17;;
74217;SDS011;62579;47.288;18.646;2022-08-07T10:47:30;1.83;;;1.73;;
74217;SDS011;62579;47.288;18.646;2022-08-07T10:50:07;2.30;;;2.10;;
74217;SDS011;62579;47.288;18.646;2022-08-07T10:52:44;4.28;;;2.12;;
74217;SDS011;62579;47.288;18.646;2022-08-07T10:55:25;2.35;;;2.15;;
74217;SDS011;62579;47.288;18.646;2022-08-07T11:03:44;3.65;;;2.30;;
74217;SDS011;62579;47.288;18.646;2022-08-07T11:06:25;2.87;;;2.00;;
74217;SDS011;62579;47.288;18.646;2022-08-07T11:09:06;2.55;;;1.90;;
74217;SDS011;62579;47.288;18.646;2022-08-07T11:14:35;3.45;;;2.00;;
74217;SDS011;62579;47.288;18.646;2022-08-07T11:17:16;4.57;;;2.17;;
74217;SDS011;62579;47.288;18.646;2022-08-07T11:25:06;7.87;;;2.58;;
74217;SDS011;62579;47.288;18.646;2022-08-07T11:30:10;3.83;;;2.10;;
74217;SDS011;62579;47.288;18.646;2022-08-07T11:33:00;3.15;;;2.37;;
74217;SDS011;62579;47.288;18.646;2022-08-07T11:35:35;2.22;;;2.03;;
74217;SDS011;62579;47.288;18.646;2022-08-07T11:38:17;2.60;;;2.40;;
74217;SDS011;62579;47.288;18.646;2022-08-07T11:41:04;2.80;;;2.42;;
74217;SDS011;62579;47.288;18.646;2022-08-07T11:46:26;3.20;;;2.40;;
74217;SDS011;62579;47.288;18.646;2022-08-07T11:57:40;2.60;;;2.37;;
74217;SDS011;62579;47.288;18.646;2022-08-07T12:00:14;2.87;;;2.60;;
74217;SDS011;62579;47.288;18.646;2022-08-07T12:08:36;5.30;;;2.50;;
74217;SDS011;62579;47.288;18.646;2022-08-07T12:11:09;4.97;;;2.20;;
74217;SDS011;62579;47.288;18.646;2022-08-07T12:13:47;2.80;;;2.50;;
74217;SDS011;62579;47.288;18.646;2022-08-07T12:16:21;6.22;;;2.62;;
74217;SDS011;62579;47.288;18.646;2022-08-07T12:21:39;3.87;;;2.40;;
74217;SDS011;62579;47.288;18.646;2022-08-07T12:24:26;4.15;;;2.62;;
74217;SDS011;62579;47.288;18.646;2022-08-07T12:26:57;4.68;;;2.67;;
74217;SDS011;62579;47.288;18.646;2022-08-07T12:34:52;3.08;;;2.60;;
74217;SDS011;62579;47.288;18.646;2022-08-07T12:51:20;6.78;;;2.83;;
74217;SDS011;62579;47.288;18.646;2022-08-07T12:53:52;4.50;;;2.80;;
74217;SDS011;62579;47.288;18.646;2022-08-07T12:59:03;3.05;;;2.75;;
74217;SDS011;62579;47.288;18.646;2022-08-07T13:07:13;2.60;;;2.40;;
74217;SDS011;62579;47.288;18.646;2022-08-07T13:21:18;2.60;;;2.40;;
74217;SDS011;62579;47.288;18.646;2022-08-07T13:24:00;3.30;;;2.50;;
74217;SDS011;62579;47.288;18.646;2022-08-07T13:26:43;2.92;;;2.72;;
74217;SDS011;62579;47.288;18.646;2022-08-07T13:29:19;4.40;;;2.60;;
74217;SDS011;62579;47.288;18.646;2022-08-07T13:31:52;3.20;;;2.83;;
74217;SDS011;62579;47.288;18.646;2022-08-07T13:34:53;5.12;;;2.65;;
74217;SDS011;62579;47.288;18.646;2022-08-07T13:42:33;3.87;;;2.90;;
74217;SDS011;62579;47.288;18.646;2022-08-07T13:50:16;6.70;;;2.60;;
74217;SDS011;62579;47.288;18.646;2022-08-07T13:52:46;3.75;;;2.50;;
74217;SDS011;62579;47.288;18.646;2022-08-07T13:55:16;3.03;;;2.58;;
74217;SDS011;62579;47.288;18.646;2022-08-07T13:57:44;2.67;;;2.47;;
74217;SDS011;62579;47.288;18.646;2022-08-07T14:00:13;2.70;;;2.50;;
74217;SDS011;62579;47.288;18.646;2022-08-07T14:05:12;3.03;;;2.72;;
74217;SDS011;62579;47.288;18.646;2022-08-07T14:07:40;3.10;;;2.78;;
74217;SDS011;62579;47.288;18.646;2022-08-07T14:10:07;4.40;;;3.00;;
74217;SDS011;62579;47.288;18.646;2022-08-07T14:12:40;3.35;;;2.50;;
74217;SDS011;62579;47.288;18.646;2022-08-07T14:17:55;3.20;;;2.90;;
74217;SDS011;62579;47.288;18.646;2022-08-07T14:20:26;4.20;;;2.60;;
74217;SDS011;62579;47.288;18.646;2022-08-07T14:23:00;3.05;;;2.85;;
74217;SDS011;62579;47.288;18.646;2022-08-07T14:25:31;4.62;;;2.70;;
74217;SDS011;62579;47.288;18.646;2022-08-07T14:30:28;5.03;;;2.50;;
74217;SDS011;62579;47.288;18.646;2022-08-07T14:35:24;5.30;;;2.67;;
74217;SDS011;62579;47.288;18.646;2022-08-07T14:37:53;4.00;;;2.70;;
74217;SDS011;62579;47.288;18.646;2022-08-07T14:40:21;7.37;;;3.08;;
74217;SDS011;62579;47.288;18.646;2022-08-07T14:42:54;2.53;;;2.42;;
74217;SDS011;62579;47.288;18.646;2022-08-07T14:48:21;4.15;;;2.78;;
74217;SDS011;62579;47.288;18.646;2022-08-07T14:50:57;4.75;;;2.80;;
74217;SDS011;62579;47.288;18.646;2022-08-07T14:53:30;3.17;;;2.90;;
74217;SDS011;62579;47.288;18.646;2022-08-07T14:56:01;2.92;;;2.65;;
74217;SDS011;62579;47.288;18.646;2022-08-07T14:58:31;3.58;;;2.80;;
74217;SDS011;62579;47.288;18.646;2022-08-07T15:00:59;3.05;;;2.85;;
74217;SDS011;62579;47.288;18.646;2022-08-07T15:03:26;3.22;;;2.72;;
74217;SDS011;62579;47.288;18.646;2022-08-07T15:05:53;5.32;;;3.20;;
74217;SDS011;62579;47.288;18.646;2022-08-07T15:08:22;6.40;;;2.53;;
74217;SDS011;62579;47.288;18.646;2022-08-07T15:10:55;5.15;;;2.72;;
74217;SDS011;62579;47.288;18.646;2022-08-07T15:13:24;3.58;;;2.87;;
74217;SDS011;62579;47.288;18.646;2022-08-07T15:15:52;2.92;;;2.62;;
74217;SDS011;62579;47.288;18.646;2022-08-07T15:18:37;2.72;;;2.50;;
74217;SDS011;62579;47.288;18.646;2022-08-07T15:21:18;6.78;;;3.08;;
74217;SDS011;62579;47.288;18.646;2022-08-07T15:23:47;2.50;;;2.30;;
74217;SDS011;62579;47.288;18.646;2022-08-07T15:26:15;7.18;;;2.80;;
74217;SDS011;62579;47.288;18.646;2022-08-07T15:28:46;2.72;;;2.53;;
74217;SDS011;62579;47.288;18.646;2022-08-07T15:31:13;5.05;;;2.60;;
74217;SDS011;62579;47.288;18.646;2022-08-07T15:33:41;2.80;;;2.60;;
74217;SDS011;62579;47.288;18.646;2022-08-07T15:36:07;6.70;;;2.58;;
74217;SDS011;62579;47.288;18.646;2022-08-07T15:38:35;2.90;;;2.60;;
74217;SDS011;62579;47.288;18.646;2022-08-07T15:41:11;2.58;;;2.37;;
74217;SDS011;62579;47.288;18.646;2022-08-07T15:43:41;5.82;;;2.97;;
74217;SDS011;62579;47.288;18.646;2022-08-07T15:48:56;7.85;;;2.70;;
74217;SDS011;62579;47.288;18.646;2022-08-07T15:51:24;4.28;;;2.53;;
74217;SDS011;62579;47.288;18.646;2022-08-07T15:53:55;3.53;;;2.50;;
74217;SDS011;62579;47.288;18.646;2022-08-07T15:56:27;6.18;;;2.53;;
74217;SDS011;62579;47.288;18.646;2022-08-07T15:58:56;4.62;;;2.58;;
74217;SDS011;62579;47.288;18.646;2022-08-07T16:03:57;5.82;;;2.65;;
74217;SDS011;62579;47.288;18.646;2022-08-07T16:06:28;6.07;;;3.12;;
74217;SDS011;62579;47.288;18.646;2022-08-07T16:08:58;3.47;;;2.90;;
74217;SDS011;62579;47.288;18.646;2022-08-07T16:23:16;2.78;;;2.50;;
74217;SDS011;62579;47.288;18.646;2022-08-07T16:31:08;2.50;;;2.30;;
74217;SDS011;62579;47.288;18.646;2022-08-07T16:33:59;6.32;;;2.72;;
74217;SDS011;62579;47.288;18.646;2022-08-07T16:42:02;3.47;;;2.45;;
74217;SDS011;62579;47.288;18.646;2022-08-07T17:04:39;3.28;;;1.95;;
74217;SDS011;62579;47.288;18.646;2022-08-07T17:07:20;3.05;;;2.10;;
74217;SDS011;62579;47.288;18.646;2022-08-07T17:09:50;4.05;;;2.00;;
74217;SDS011;62579;47.288;18.646;2022-08-07T17:12:23;4.32;;;2.10;;
74217;SDS011;62579;47.288;18.646;2022-08-07T17:15:04;2.75;;;2.30;;
74217;SDS011;62579;47.288;18.646;2022-08-07T17:20:58;2.75;;;2.50;;
74217;SDS011;62579;47.288;18.646;2022-08-07T17:26:00;2.80;;;2.20;;
74217;SDS011;62579;47.288;18.646;2022-08-07T17:28:31;5.40;;;2.50;;
74217;SDS011;62579;47.288;18.646;2022-08-07T17:31:12;4.70;;;2.50;;
74217;SDS011;62579;47.288;18.646;2022-08-07T17:33:45;4.75;;;2.50;;
74217;SDS011;62579;47.288;18.646;2022-08-07T17:36:29;4.47;;;2.25;;
74217;SDS011;62579;47.288;18.646;2022-08-07T17:39:01;4.93;;;2.30;;
74217;SDS011;62579;47.288;18.646;2022-08-07T17:44:06;5.18;;;2.42;;
74217;SDS011;62579;47.288;18.646;2022-08-07T17:46:46;2.25;;;2.05;;
74217;SDS011;62579;47.288;18.646;2022-08-07T17:49:18;3.10;;;2.15;;
74217;SDS011;62579;47.288;18.646;2022-08-07T18:16:50;3.50;;;1.90;;
74217;SDS011;62579;47.288;18.646;2022-08-07T18:19:35;3.30;;;1.90;;
74217;SDS011;62579;47.288;18.646;2022-08-07T18:22:09;4.50;;;2.00;;
74217;SDS011;62579;47.288;18.646;2022-08-07T18:24:49;2.15;;;1.83;;
74217;SDS011;62579;47.288;18.646;2022-08-07T18:30:23;3.55;;;2.10;;
74217;SDS011;62579;47.288;18.646;2022-08-07T18:33:43;2.03;;;1.90;;
74217;SDS011;62579;47.288;18.646;2022-08-07T18:50:16;3.83;;;1.98;;
74217;SDS011;62579;47.288;18.646;2022-08-07T18:55:34;3.05;;;1.90;;
74217;SDS011;62579;47.288;18.646;2022-08-07T19:04:02;2.67;;;1.73;;
74217;SDS011;62579;47.288;18.646;2022-08-07T19:06:40;2.17;;;1.70;;
74217;SDS011;62579;47.288;18.646;2022-08-07T19:09:22;2.40;;;2.00;;
74217;SDS011;62579;47.288;18.646;2022-08-07T19:12:02;2.00;;;1.90;;
74217;SDS011;62579;47.288;18.646;2022-08-07T19:14:38;5.90;;;2.42;;
74217;SDS011;62579;47.288;18.646;2022-08-07T19:17:16;3.20;;;1.80;;
74217;SDS011;62579;47.288;18.646;2022-08-07T19:19:52;1.95;;;1.80;;
74217;SDS011;62579;47.288;18.646;2022-08-07T19:22:20;2.20;;;2.00;;
74217;SDS011;62579;47.288;18.646;2022-08-07T19:24:47;3.12;;;2.20;;
74217;SDS011;62579;47.288;18.646;2022-08-07T19:29:52;2.30;;;2.00;;
74217;SDS011;62579;47.288;18.646;2022-08-07T19:32:21;3.15;;;2.05;;
74217;SDS011;62579;47.288;18.646;2022-08-07T19:34:50;3.58;;;2.00;;
74217;SDS011;62579;47.288;18.646;2022-08-07T19:37:19;2.65;;;1.80;;
74217;SDS011;62579;47.288;18.646;2022-08-07T19:39:57;2.92;;;2.10;;
74217;SDS011;62579;47.288;18.646;2022-08-07T19:42:25;2.92;;;1.90;;
74217;SDS011;62579;47.288;18.646;2022-08-07T19:44:53;1.95;;;1.80;;
74217;SDS011;62579;47.288;18.646;2022-08-07T19:47:19;3.08;;;2.15;;
74217;SDS011;62579;47.288;18.646;2022-08-07T19:49:47;3.47;;;1.90;;
74217;SDS011;62579;47.288;18.646;2022-08-07T19:52:15;2.17;;;1.95;;